createdAt,value
2022-12-22T00:00:20.310Z,8.49
2022-12-22T00:02:40.849Z,8.52
2022-12-22T00:05:01.784Z,8.44
2022-12-22T00:07:22.551Z,8.48
2022-12-22T00:09:43.019Z,8.48
2022-12-22T00:12:05.188Z,8.68
2022-12-22T00:14:28.437Z,8.71
2022-12-22T00:16:57.329Z,8.67
2022-12-22T00:19:18.038Z,8.58
2022-12-22T00:21:38.418Z,8.59
2022-12-22T00:23:58.754Z,8.48
2022-12-22T00:26:18.832Z,8.61
2022-12-22T00:28:39.375Z,8.62
2022-12-22T00:31:00.135Z,8.70
2022-12-22T00:33:22.938Z,8.60
2022-12-22T00:35:44.675Z,8.67
2022-12-22T00:38:05.287Z,8.72
2022-12-22T00:40:36.592Z,8.75
2022-12-22T00:42:56.748Z,8.72
2022-12-22T00:45:16.789Z,8.63
2022-12-22T00:47:46.760Z,8.67
2022-12-22T00:50:07.731Z,8.74
2022-12-22T00:52:28.738Z,8.62
2022-12-22T00:54:49.543Z,8.59
2022-12-22T00:57:09.977Z,8.59
2022-12-22T00:59:31.105Z,8.71
2022-12-22T01:01:51.191Z,8.59
2022-12-22T01:04:11.707Z,8.71
2022-12-22T01:06:32.187Z,8.75
2022-12-22T01:08:53.985Z,8.64
2022-12-22T01:11:14.366Z,8.79
2022-12-22T01:13:35.793Z,8.76
2022-12-22T01:15:56.058Z,8.69
2022-12-22T01:18:16.356Z,8.68
2022-12-22T01:20:36.887Z,8.71
2022-12-22T01:22:57.628Z,8.58
2022-12-22T01:25:18.094Z,8.56
2022-12-22T01:27:38.527Z,8.65
2022-12-22T01:29:58.629Z,8.61
2022-12-22T01:32:19.976Z,8.63
2022-12-22T01:34:40.205Z,8.65
2022-12-22T01:37:00.334Z,8.71
2022-12-22T01:39:21.985Z,8.72
2022-12-22T01:41:42.295Z,8.74
2022-12-22T01:44:03.332Z,8.75
2022-12-22T01:46:47.996Z,8.85
2022-12-22T01:49:08.490Z,8.83
2022-12-22T01:51:33.937Z,8.78
2022-12-22T01:53:54.393Z,8.80
2022-12-22T01:56:16.866Z,8.84
2022-12-22T01:58:46.688Z,8.71
2022-12-22T02:01:06.924Z,8.75
2022-12-22T02:03:38.926Z,8.78
2022-12-22T02:06:16.139Z,8.86
2022-12-22T02:08:44.609Z,8.81
2022-12-22T02:11:17.279Z,8.84
2022-12-22T02:13:50.285Z,8.75
2022-12-22T02:16:26.945Z,8.81
2022-12-22T02:18:54.364Z,8.83
2022-12-22T02:21:22.994Z,8.87
2022-12-22T02:24:01.668Z,8.79
2022-12-22T02:26:44.076Z,8.83
2022-12-22T02:29:06.560Z,8.74
2022-12-22T02:31:27.768Z,8.80
2022-12-22T02:33:47.932Z,8.77
2022-12-22T02:36:12.788Z,8.83
2022-12-22T02:38:51.182Z,8.86
2022-12-22T02:41:30.424Z,8.77
2022-12-22T02:43:53.983Z,8.80
2022-12-22T02:46:23.403Z,8.77
2022-12-22T02:48:55.292Z,8.92
2022-12-22T02:51:31.700Z,9.01
2022-12-22T02:53:53.304Z,8.84
2022-12-22T02:56:23.272Z,8.77
2022-12-22T02:58:45.066Z,8.88
2022-12-22T03:01:06.613Z,8.80
2022-12-22T03:03:27.276Z,8.79
2022-12-22T03:05:47.564Z,8.80
2022-12-22T03:08:08.849Z,8.85
2022-12-22T03:10:30.178Z,8.78
2022-12-22T03:12:50.677Z,8.86
2022-12-22T03:15:11.087Z,8.86
2022-12-22T03:17:31.962Z,8.96
2022-12-22T03:19:52.385Z,8.81
2022-12-22T03:22:12.908Z,8.87
2022-12-22T03:24:33.453Z,8.88
2022-12-22T03:26:35.910Z,8.97
2022-12-22T03:28:37.540Z,8.90
2022-12-22T03:30:39.233Z,8.87
2022-12-22T03:32:40.943Z,8.91
2022-12-22T03:34:42.459Z,8.94
2022-12-22T03:36:44.100Z,8.97
2022-12-22T03:38:45.652Z,9.03
2022-12-22T03:40:47.416Z,8.98
2022-12-22T03:43:07.382Z,9.06
2022-12-22T03:45:29.587Z,9.00
2022-12-22T03:47:31.750Z,8.93
2022-12-22T03:49:33.408Z,8.98
2022-12-22T03:51:36.607Z,9.01
2022-12-22T03:53:39.150Z,9.06
2022-12-22T03:55:40.836Z,8.97
2022-12-22T03:57:42.744Z,8.90
2022-12-22T03:59:44.954Z,8.94
2022-12-22T04:01:52.242Z,8.98
2022-12-22T04:03:54.096Z,9.03
2022-12-22T04:05:55.795Z,8.97
2022-12-22T04:07:57.358Z,9.00
2022-12-22T04:10:17.627Z,9.09
2022-12-22T04:12:37.978Z,9.18
2022-12-22T04:14:39.546Z,9.17
2022-12-22T04:16:41.269Z,9.16
2022-12-22T04:18:42.965Z,9.08
2022-12-22T04:20:44.634Z,9.09
2022-12-22T04:22:47.335Z,9.10
2022-12-22T04:24:49.145Z,9.16
2022-12-22T04:26:51.379Z,9.02
2022-12-22T04:28:54.261Z,9.06
2022-12-22T04:30:56.114Z,9.11
2022-12-22T04:32:57.690Z,9.20
2022-12-22T04:34:59.313Z,9.23
2022-12-22T04:37:12.787Z,9.12
2022-12-22T04:39:18.254Z,9.13
2022-12-22T04:41:19.887Z,9.23
2022-12-22T04:43:21.568Z,9.14
2022-12-22T04:45:23.212Z,9.16
2022-12-22T04:47:24.764Z,9.12
2022-12-22T04:49:26.407Z,9.13
2022-12-22T04:51:28.672Z,9.17
2022-12-22T04:53:30.919Z,9.12
2022-12-22T04:55:32.462Z,9.10
2022-12-22T04:57:40.277Z,9.07
2022-12-22T04:59:42.391Z,9.08
2022-12-22T05:01:44.450Z,8.99
2022-12-22T05:03:46.785Z,9.01
2022-12-22T05:05:48.628Z,9.02
2022-12-22T05:07:50.183Z,9.06
2022-12-22T05:09:51.777Z,9.11
2022-12-22T05:11:53.566Z,9.09
2022-12-22T05:13:55.308Z,9.15
2022-12-22T05:16:13.000Z,9.10
2022-12-22T05:18:14.764Z,9.03
2022-12-22T05:20:16.769Z,8.95
2022-12-22T05:22:18.415Z,8.96
2022-12-22T05:24:20.023Z,9.11
2022-12-22T05:26:21.628Z,9.07
2022-12-22T05:28:23.977Z,9.09
2022-12-22T05:30:25.799Z,8.94
2022-12-22T05:32:27.450Z,8.93
2022-12-22T05:34:29.082Z,8.98
2022-12-22T05:36:30.716Z,9.10
2022-12-22T05:38:32.305Z,9.03
2022-12-22T05:40:33.862Z,8.92
2022-12-22T05:42:39.261Z,8.80
2022-12-22T05:44:40.926Z,8.83
2022-12-22T05:46:42.833Z,8.84
2022-12-22T05:48:44.440Z,8.98
2022-12-22T05:50:46.448Z,8.92
2022-12-22T05:52:48.228Z,9.00
2022-12-22T05:54:49.873Z,9.03
2022-12-22T05:56:52.186Z,9.03
2022-12-22T05:58:53.915Z,8.99
2022-12-22T06:00:59.806Z,8.90
2022-12-22T06:03:01.482Z,8.87
2022-12-22T06:05:03.698Z,8.88
2022-12-22T06:07:05.676Z,8.99
2022-12-22T06:09:07.240Z,8.98
2022-12-22T06:11:08.777Z,8.93
2022-12-22T06:13:10.329Z,8.95
2022-12-22T06:15:13.748Z,9.02
2022-12-22T06:17:15.321Z,8.99
2022-12-22T06:19:16.915Z,8.92
2022-12-22T06:21:18.498Z,8.93
2022-12-22T06:23:21.651Z,8.90
2022-12-22T06:25:23.230Z,8.99
2022-12-22T06:27:25.003Z,8.92
2022-12-22T06:29:27.063Z,8.92
2022-12-22T06:31:28.701Z,8.82
2022-12-22T06:33:30.379Z,8.69
2022-12-22T06:35:32.386Z,8.83
2022-12-22T06:37:34.100Z,8.90
2022-12-22T06:39:35.760Z,8.89
2022-12-22T06:41:56.844Z,8.94
2022-12-22T06:43:58.481Z,9.06
2022-12-22T06:46:00.215Z,9.07
2022-12-22T06:48:02.078Z,9.05
2022-12-22T06:50:04.385Z,8.91
2022-12-22T06:52:08.985Z,8.97
2022-12-22T06:54:10.654Z,8.99
2022-12-22T06:56:12.301Z,9.04
2022-12-22T06:58:14.580Z,9.08
2022-12-22T07:00:16.523Z,9.12
2022-12-22T07:02:18.474Z,9.03
2022-12-22T07:04:21.463Z,9.09
2022-12-22T07:06:23.423Z,9.12
2022-12-22T07:08:25.391Z,9.04
2022-12-22T07:11:02.509Z,9.13
2022-12-22T07:13:19.057Z,9.08
2022-12-22T07:15:20.984Z,9.04
2022-12-22T07:17:22.664Z,9.14
2022-12-22T07:19:24.249Z,9.17
2022-12-22T07:21:26.219Z,9.28
2022-12-22T07:23:28.604Z,9.20
2022-12-22T07:25:30.159Z,9.20
2022-12-22T07:27:50.445Z,9.13
2022-12-22T07:29:52.043Z,9.21
2022-12-22T07:31:53.917Z,9.26
2022-12-22T07:34:14.552Z,9.19
2022-12-22T07:36:19.018Z,9.17
2022-12-22T07:38:42.050Z,9.19
2022-12-22T07:40:47.948Z,9.19
2022-12-22T07:42:57.878Z,9.14
2022-12-22T07:44:59.449Z,9.18
2022-12-22T07:47:02.156Z,9.05
2022-12-22T07:49:41.294Z,9.18
2022-12-22T07:51:44.264Z,9.23
2022-12-22T07:53:46.882Z,9.11
2022-12-22T07:55:48.393Z,9.16
2022-12-22T07:57:50.711Z,9.17
2022-12-22T07:59:53.233Z,9.07
2022-12-22T08:01:54.859Z,9.02
2022-12-22T08:03:56.987Z,8.97
2022-12-22T08:05:58.608Z,9.07
2022-12-22T08:08:00.372Z,9.13
2022-12-22T08:10:02.128Z,9.14
2022-12-22T08:12:22.430Z,9.26
2022-12-22T08:14:24.568Z,9.22
2022-12-22T08:16:26.654Z,9.13
2022-12-22T08:18:28.287Z,9.15
2022-12-22T08:20:29.852Z,9.21
2022-12-22T08:22:31.706Z,9.22
2022-12-22T08:24:33.237Z,9.09
2022-12-22T08:26:38.269Z,9.07
2022-12-22T08:28:56.485Z,9.13
2022-12-22T08:30:59.443Z,9.13
2022-12-22T08:33:01.777Z,9.19
2022-12-22T08:35:04.984Z,9.14
2022-12-22T08:37:29.604Z,9.09
2022-12-22T08:39:35.015Z,9.17
2022-12-22T08:41:52.192Z,9.27
2022-12-22T08:43:54.591Z,9.13
2022-12-22T08:45:56.096Z,9.16
2022-12-22T08:47:57.652Z,9.10
2022-12-22T08:49:59.359Z,9.16
2022-12-22T08:52:01.423Z,9.17
2022-12-22T08:54:05.552Z,9.15
2022-12-22T08:56:08.171Z,9.21
2022-12-22T08:58:09.797Z,9.23
2022-12-22T09:00:12.912Z,9.14
2022-12-22T09:02:14.636Z,9.11
2022-12-22T09:04:21.034Z,9.10
2022-12-22T09:06:27.529Z,9.06
2022-12-22T09:08:29.705Z,9.10
2022-12-22T09:10:31.657Z,9.09
2022-12-22T09:12:33.516Z,9.07
2022-12-22T09:14:35.121Z,9.12
2022-12-22T09:16:37.085Z,9.12
2022-12-22T09:18:38.683Z,9.17
2022-12-22T09:20:40.408Z,9.20
2022-12-22T09:22:42.112Z,9.14
2022-12-22T09:24:43.830Z,9.08
2022-12-22T09:26:45.567Z,9.14
2022-12-22T09:28:50.554Z,9.14
2022-12-22T09:30:53.216Z,9.20
2022-12-22T09:32:56.084Z,9.15
2022-12-22T09:34:57.729Z,9.14
2022-12-22T09:36:59.370Z,9.15
2022-12-22T09:39:07.368Z,9.19
2022-12-22T09:41:31.766Z,9.15
2022-12-22T09:43:33.539Z,9.21
2022-12-22T09:45:37.726Z,9.19
2022-12-22T09:47:40.574Z,9.17
2022-12-22T09:49:42.875Z,9.15
2022-12-22T09:51:49.367Z,9.17
2022-12-22T09:53:59.092Z,9.12
2022-12-22T09:56:00.783Z,9.08
2022-12-22T09:58:02.788Z,9.09
2022-12-22T10:00:15.056Z,9.09
2022-12-22T10:02:34.837Z,9.06
2022-12-22T10:04:45.553Z,9.01
2022-12-22T10:06:58.527Z,9.08
2022-12-22T10:09:46.291Z,9.10
2022-12-22T10:11:39.806Z,9.06
2022-12-22T10:13:41.983Z,9.03
2022-12-22T10:15:44.072Z,9.10
2022-12-22T10:17:46.132Z,9.07
2022-12-22T10:19:49.393Z,8.95
2022-12-22T10:21:51.505Z,8.95
2022-12-22T10:23:53.363Z,8.91
2022-12-22T10:28:22.005Z,8.97
2022-12-22T10:30:30.415Z,8.94
2022-12-22T10:32:31.968Z,8.94
2022-12-22T10:34:33.616Z,8.93
2022-12-22T10:36:35.745Z,8.87
2022-12-22T10:38:51.911Z,8.91
2022-12-22T10:41:08.842Z,8.91
2022-12-22T10:43:19.114Z,8.91
2022-12-22T10:45:26.699Z,8.91
2022-12-22T10:47:28.362Z,8.88
2022-12-22T10:51:36.933Z,8.91
2022-12-22T10:53:54.677Z,9.01
2022-12-22T10:56:07.578Z,8.99
2022-12-22T10:58:19.162Z,9.01
2022-12-22T11:00:29.589Z,9.05
2022-12-22T11:02:39.239Z,9.00
2022-12-22T11:04:41.001Z,8.96
2022-12-22T11:06:45.595Z,9.01
2022-12-22T11:08:51.559Z,9.02
2022-12-22T11:11:01.226Z,9.07
2022-12-22T11:13:15.270Z,8.93
2022-12-22T11:15:31.814Z,8.96
2022-12-22T11:17:44.788Z,9.03
2022-12-22T11:20:17.706Z,8.99
2022-12-22T11:22:41.455Z,8.94
2022-12-22T11:24:59.816Z,8.91
2022-12-22T11:27:22.638Z,8.87
2022-12-22T11:30:01.847Z,8.97
2022-12-22T11:32:41.158Z,8.99
2022-12-22T11:34:57.774Z,9.00
2022-12-22T11:37:31.725Z,8.95
2022-12-22T11:39:41.791Z,8.94
2022-12-22T11:42:08.036Z,8.95
2022-12-22T11:44:28.317Z,8.95
2022-12-22T11:46:38.765Z,8.94
2022-12-22T11:48:59.356Z,8.94
2022-12-22T11:51:27.723Z,8.92
2022-12-22T11:54:12.398Z,8.94
2022-12-22T11:56:27.383Z,8.92
2022-12-22T11:58:59.667Z,9.00
2022-12-22T12:01:17.930Z,9.01
2022-12-22T12:03:31.106Z,9.10
2022-12-22T12:06:02.189Z,9.07
2022-12-22T12:08:18.335Z,8.98
2022-12-22T12:10:26.740Z,9.00
2022-12-22T12:12:35.191Z,8.99
2022-12-22T12:14:47.215Z,8.97
2022-12-22T12:16:58.492Z,9.09
2022-12-22T12:19:44.069Z,9.10
2022-12-22T12:21:51.479Z,9.12
2022-12-22T12:24:05.108Z,9.09
2022-12-22T12:26:22.117Z,9.08
2022-12-22T12:28:51.865Z,9.03
2022-12-22T12:30:59.728Z,8.94
2022-12-22T12:37:30.317Z,8.96
2022-12-22T12:40:29.903Z,9.02
2022-12-22T12:42:53.497Z,9.04
2022-12-22T12:45:41.630Z,9.05
2022-12-22T12:48:22.166Z,8.99
2022-12-22T12:50:44.244Z,9.03
2022-12-22T12:53:10.816Z,9.05
2022-12-22T12:55:52.134Z,8.98
2022-12-22T12:58:39.698Z,9.03
2022-12-22T13:01:04.587Z,9.07
2022-12-22T13:04:01.876Z,9.13
2022-12-22T13:06:53.159Z,9.08
2022-12-22T13:12:38.847Z,9.10
2022-12-22T13:15:01.590Z,9.12
2022-12-22T13:17:54.634Z,8.97
2022-12-22T13:20:26.768Z,9.04
2022-12-22T13:22:53.052Z,9.05
2022-12-22T13:25:16.503Z,9.03
2022-12-22T13:27:18.346Z,9.00
2022-12-22T13:29:22.886Z,9.09
2022-12-22T13:31:29.038Z,9.04
2022-12-22T13:33:36.860Z,9.14
2022-12-22T13:35:47.586Z,9.11
2022-12-22T13:37:53.648Z,9.16
2022-12-22T13:40:11.792Z,9.20
2022-12-22T13:42:13.513Z,9.21
2022-12-22T13:44:35.310Z,9.15
2022-12-22T13:47:02.777Z,9.11
2022-12-22T13:49:58.672Z,9.21
2022-12-22T13:52:14.798Z,9.14
2022-12-22T13:54:39.305Z,9.13
2022-12-22T13:57:05.309Z,9.13
2022-12-22T13:59:41.585Z,9.09
2022-12-22T14:02:15.644Z,8.97
2022-12-22T14:04:40.754Z,9.05
2022-12-22T14:07:11.727Z,8.93
2022-12-22T14:09:33.640Z,8.98
2022-12-22T14:12:06.387Z,8.93
2022-12-22T14:14:39.624Z,8.95
2022-12-22T14:17:01.968Z,9.00
2022-12-22T14:19:25.237Z,8.99
2022-12-22T14:21:58.169Z,8.97
2022-12-22T14:24:25.246Z,8.92
2022-12-22T14:26:47.684Z,8.83
2022-12-22T14:29:16.797Z,8.83
2022-12-22T14:31:53.272Z,8.86
2022-12-22T14:34:25.428Z,8.84
2022-12-22T14:36:53.909Z,8.84
2022-12-22T14:39:26.138Z,8.81
2022-12-22T14:41:53.191Z,8.74
2022-12-22T14:44:21.054Z,8.79
2022-12-22T14:46:44.392Z,8.70
2022-12-22T14:49:14.548Z,8.68
2022-12-22T14:51:36.396Z,8.65
2022-12-22T14:54:03.026Z,8.71
2022-12-22T14:56:27.356Z,8.66
2022-12-22T14:58:50.888Z,8.71
2022-12-22T15:01:13.768Z,8.71
2022-12-22T15:03:40.285Z,8.69
2022-12-22T15:06:23.799Z,8.65
2022-12-22T15:08:46.387Z,8.70
2022-12-22T15:11:15.441Z,8.74
2022-12-22T15:13:38.490Z,8.65
2022-12-22T15:16:00.479Z,8.71
2022-12-22T15:18:27.270Z,8.61
2022-12-22T15:20:50.000Z,8.62
2022-12-22T15:23:25.104Z,8.49
2022-12-22T15:25:47.626Z,8.52
2022-12-22T15:28:10.155Z,8.50
2022-12-22T15:30:32.196Z,8.48
2022-12-22T15:32:56.176Z,8.49
2022-12-22T15:35:27.650Z,8.51
2022-12-22T15:37:49.538Z,8.42
2022-12-22T15:40:15.180Z,8.30
2022-12-22T15:42:37.633Z,8.28
2022-12-22T15:44:59.738Z,8.25
2022-12-22T15:47:21.740Z,8.20
2022-12-22T15:49:43.848Z,8.17
2022-12-22T15:52:06.673Z,8.19
2022-12-22T15:54:30.919Z,8.10
2022-12-22T15:56:54.711Z,8.13
2022-12-22T15:59:20.935Z,8.20
2022-12-22T16:01:44.030Z,8.20
2022-12-22T16:04:06.134Z,8.18
2022-12-22T16:06:28.568Z,8.06
2022-12-22T16:08:53.214Z,8.07
2022-12-22T16:11:16.124Z,8.12
2022-12-22T16:13:38.345Z,8.12
2022-12-22T16:16:00.219Z,8.11
2022-12-22T16:18:22.194Z,8.15
2022-12-22T16:20:45.179Z,8.24
2022-12-22T16:23:13.372Z,8.09
2022-12-22T16:25:37.187Z,8.05
2022-12-22T16:28:02.316Z,8.06
2022-12-22T16:30:29.648Z,8.05
2022-12-22T16:32:52.155Z,8.11
2022-12-22T16:35:18.031Z,8.07
2022-12-22T16:37:39.924Z,8.12
2022-12-22T16:40:02.648Z,8.09
2022-12-22T16:45:06.315Z,8.08
2022-12-22T16:47:33.139Z,7.98
2022-12-22T16:49:55.402Z,8.00
2022-12-22T16:52:24.669Z,8.04
2022-12-22T16:54:52.588Z,8.07
2022-12-22T16:57:15.400Z,8.08
2022-12-22T16:59:37.536Z,8.06
2022-12-22T17:01:59.624Z,8.06
2022-12-22T17:04:25.859Z,7.94
2022-12-22T17:06:49.830Z,7.96
2022-12-22T17:09:18.986Z,7.92
2022-12-22T17:11:40.905Z,7.93
2022-12-22T17:14:15.469Z,7.93
2022-12-22T17:16:37.361Z,7.87
2022-12-22T17:18:59.486Z,7.85
2022-12-22T17:21:21.663Z,7.90
2022-12-22T17:24:05.019Z,7.71
2022-12-22T17:26:26.928Z,7.66
2022-12-22T17:28:49.909Z,7.63
2022-12-22T17:31:21.132Z,7.71
2022-12-22T17:33:43.427Z,7.63
2022-12-22T17:36:05.530Z,7.64
2022-12-22T17:38:29.178Z,7.54
2022-12-22T17:40:51.190Z,7.64
2022-12-22T17:43:15.057Z,7.63
2022-12-22T17:45:37.628Z,7.70
2022-12-22T17:47:59.517Z,7.74
2022-12-22T17:50:23.097Z,7.75
2022-12-22T17:52:45.777Z,7.70
2022-12-22T17:56:05.955Z,7.73
2022-12-22T17:58:17.222Z,7.65
2022-12-22T18:00:39.389Z,7.64
2022-12-22T18:03:01.652Z,7.65
2022-12-22T18:05:29.124Z,7.73
2022-12-22T18:07:51.823Z,7.85
2022-12-22T18:10:37.268Z,7.92
2022-12-22T18:13:00.914Z,7.89
2022-12-22T18:15:24.718Z,7.79
2022-12-22T18:17:46.696Z,7.87
2022-12-22T18:20:13.536Z,7.80
2022-12-22T18:22:35.595Z,8.02
2022-12-22T18:24:57.884Z,8.01
2022-12-22T18:27:20.910Z,7.90
2022-12-22T18:29:43.744Z,7.89
2022-12-22T18:32:06.247Z,7.92
2022-12-22T18:34:28.212Z,8.02
2022-12-22T18:36:50.991Z,8.10
2022-12-22T18:39:19.486Z,8.09
2022-12-22T18:41:42.290Z,8.19
2022-12-22T18:44:04.410Z,8.23
2022-12-22T18:46:26.647Z,8.13
2022-12-22T18:48:49.147Z,8.10
2022-12-22T18:51:23.248Z,8.16
2022-12-22T18:53:45.499Z,8.38
2022-12-22T18:56:12.284Z,8.45
2022-12-22T18:58:34.413Z,8.41
2022-12-22T19:00:56.711Z,8.27
2022-12-22T19:03:22.415Z,8.20
2022-12-22T19:05:45.529Z,8.18
2022-12-22T19:08:13.614Z,8.36
2022-12-22T19:10:25.938Z,8.35
2022-12-22T19:12:27.937Z,8.30
2022-12-22T19:14:29.691Z,8.42
2022-12-22T19:16:31.320Z,8.41
2022-12-22T19:18:33.109Z,8.47
2022-12-22T19:20:34.727Z,8.40
2022-12-22T19:22:36.323Z,8.42
2022-12-22T19:24:37.862Z,8.59
2022-12-22T19:26:40.892Z,8.48
2022-12-22T19:28:44.135Z,8.50
2022-12-22T19:30:45.938Z,8.56
2022-12-22T19:32:57.529Z,8.49
2022-12-22T19:34:59.113Z,8.43
2022-12-22T19:37:19.767Z,8.62
2022-12-22T19:39:40.453Z,8.61
2022-12-22T19:42:00.957Z,8.57
2022-12-22T19:44:27.739Z,8.42
2022-12-22T19:46:33.585Z,8.46
2022-12-22T19:48:35.279Z,8.45
2022-12-22T19:50:37.324Z,8.52
2022-12-22T19:52:38.868Z,8.44
2022-12-22T19:54:40.713Z,8.42
2022-12-22T19:56:46.238Z,8.46
2022-12-22T19:58:48.601Z,8.63
2022-12-22T20:00:50.943Z,8.61
2022-12-22T20:02:55.493Z,8.71
2022-12-22T20:04:58.982Z,8.69
2022-12-22T20:07:00.806Z,8.52
2022-12-22T20:09:03.155Z,8.59
2022-12-22T20:11:12.890Z,8.33
2022-12-22T20:13:21.917Z,8.44
2022-12-22T20:15:31.999Z,8.48
2022-12-22T20:17:33.610Z,8.34
2022-12-22T20:19:35.404Z,8.27
2022-12-22T20:21:37.045Z,8.41
2022-12-22T20:23:39.893Z,8.59
2022-12-22T20:25:46.292Z,8.56
2022-12-22T20:27:48.808Z,8.49
2022-12-22T20:29:50.483Z,8.53
2022-12-22T20:31:52.509Z,8.49
2022-12-22T20:33:54.948Z,8.39
2022-12-22T20:35:59.232Z,8.52
2022-12-22T20:38:01.058Z,8.54
2022-12-22T20:40:04.008Z,8.66
2022-12-22T20:42:05.645Z,8.61
2022-12-22T20:44:07.262Z,8.62
2022-12-22T20:46:27.232Z,8.59
2022-12-22T20:48:34.783Z,8.65
2022-12-22T20:50:36.388Z,8.63
2022-12-22T20:52:38.007Z,8.61
2022-12-22T20:54:42.644Z,8.65
2022-12-22T20:56:44.959Z,8.68
2022-12-22T20:58:46.824Z,8.72
2022-12-22T21:00:50.565Z,8.70
2022-12-22T21:02:52.752Z,8.60
2022-12-22T21:04:54.628Z,8.69
2022-12-22T21:06:57.695Z,8.77
2022-12-22T21:09:00.437Z,8.77
2022-12-22T21:11:02.205Z,8.73
2022-12-22T21:13:04.012Z,8.74
2022-12-22T21:15:06.132Z,8.56
2022-12-22T21:17:26.024Z,8.53
2022-12-22T21:19:27.680Z,8.63
2022-12-22T21:21:31.312Z,8.69
2022-12-22T21:23:33.332Z,8.54
2022-12-22T21:25:35.402Z,8.63
2022-12-22T21:27:38.352Z,8.58
2022-12-22T21:29:39.987Z,8.69
2022-12-22T21:31:41.582Z,8.64
2022-12-22T21:33:43.676Z,8.70
2022-12-22T21:35:45.370Z,8.69
2022-12-22T21:37:49.333Z,8.64
2022-12-22T21:39:50.917Z,8.67
2022-12-22T21:42:03.176Z,8.72
2022-12-22T21:44:04.904Z,8.75
2022-12-22T21:46:06.547Z,8.73
2022-12-22T21:48:14.980Z,8.70
2022-12-22T21:50:26.455Z,8.66
2022-12-22T21:52:27.996Z,8.62
2022-12-22T21:54:29.688Z,8.75
2022-12-22T21:56:31.642Z,8.74
2022-12-22T21:58:33.404Z,8.69
2022-12-22T22:00:35.765Z,8.72
2022-12-22T22:02:37.424Z,8.65
2022-12-22T22:04:39.140Z,8.78
2022-12-22T22:06:40.917Z,8.69
2022-12-22T22:08:43.481Z,8.71
2022-12-22T22:10:45.036Z,8.64
2022-12-22T22:12:46.770Z,8.61
2022-12-22T22:14:48.795Z,8.68
2022-12-22T22:16:51.136Z,8.68
2022-12-22T22:18:52.778Z,8.56
2022-12-22T22:20:54.495Z,8.64
2022-12-22T22:22:57.615Z,8.54
2022-12-22T22:24:59.148Z,8.59
2022-12-22T22:27:01.104Z,8.59
2022-12-22T22:29:02.651Z,8.53
2022-12-22T22:31:11.688Z,8.66
2022-12-22T22:33:14.082Z,8.59
2022-12-22T22:35:16.716Z,8.68
2022-12-22T22:37:18.875Z,8.75
2022-12-22T22:39:22.908Z,8.73
2022-12-22T22:41:25.293Z,8.78
2022-12-22T22:43:26.897Z,8.72
2022-12-22T22:45:28.451Z,8.82
2022-12-22T22:47:30.229Z,8.80
2022-12-22T22:49:31.919Z,8.78
2022-12-22T22:51:33.955Z,8.79
2022-12-22T22:53:35.696Z,8.76
2022-12-22T22:55:37.224Z,8.59
2022-12-22T22:57:39.203Z,8.60
2022-12-22T22:59:40.819Z,8.64
2022-12-22T23:01:42.695Z,8.62
2022-12-22T23:03:44.585Z,8.55
2022-12-22T23:05:46.374Z,8.46
2022-12-22T23:07:47.924Z,8.51
2022-12-22T23:09:49.476Z,8.51
2022-12-22T23:11:52.504Z,8.65
2022-12-22T23:13:54.946Z,8.65
2022-12-22T23:15:59.028Z,8.68
2022-12-22T23:18:01.135Z,8.69
2022-12-22T23:20:03.792Z,8.61
2022-12-22T23:22:05.591Z,8.66
2022-12-22T23:24:11.413Z,8.78
2022-12-22T23:26:13.034Z,8.80
2022-12-22T23:28:14.743Z,8.71
2022-12-22T23:30:19.175Z,8.75
2022-12-22T23:32:20.722Z,8.75
2022-12-22T23:34:22.456Z,8.66
2022-12-22T23:36:24.565Z,8.67
2022-12-22T23:38:26.381Z,8.61
2022-12-22T23:42:56.403Z,8.60
2022-12-22T23:44:58.663Z,8.66
2022-12-22T23:47:01.248Z,8.71
2022-12-22T23:49:03.040Z,8.77
2022-12-22T23:51:05.471Z,8.72
2022-12-22T23:53:07.101Z,8.72
2022-12-22T23:55:09.534Z,8.70
2022-12-22T23:57:12.354Z,8.75
2022-12-22T23:59:14.454Z,8.64
